sensor_id;sensor_type;location;lat;lon;timestamp;pressure;altitude;pressure_sealevel;temperature;humidity
11001;BME280;5553;48.506;8.870;2022-07-26T00:02:03;96456.44;;;18.71;77.69
11001;BME280;5553;48.506;8.870;2022-07-26T00:04:31;96453.94;;;19.20;74.85
11001;BME280;5553;48.506;8.870;2022-07-26T00:06:59;96459.50;;;19.35;73.62
11001;BME280;5553;48.506;8.870;2022-07-26T00:09:28;96473.69;;;19.36;73.77
11001;BME280;5553;48.506;8.870;2022-07-26T00:11:59;96463.28;;;19.39;74.48
11001;BME280;5553;48.506;8.870;2022-07-26T00:14:27;96467.53;;;19.35;75.04
11001;BME280;5553;48.506;8.870;2022-07-26T00:16:56;96458.94;;;19.33;75.52
11001;BME280;5553;48.506;8.870;2022-07-26T00:19:24;96458.34;;;19.31;76.50
11001;BME280;5553;48.506;8.870;2022-07-26T00:21:52;96460.53;;;19.34;75.89
11001;BME280;5553;48.506;8.870;2022-07-26T00:24:33;96469.13;;;19.36;75.55
11001;BME280;5553;48.506;8.870;2022-07-26T00:27:04;96468.16;;;19.42;75.39
11001;BME280;5553;48.506;8.870;2022-07-26T00:29:32;96466.03;;;19.45;75.22
11001;BME280;5553;48.506;8.870;2022-07-26T00:32:00;96458.31;;;19.48;74.77
11001;BME280;5553;48.506;8.870;2022-07-26T00:34:29;96468.28;;;19.53;74.54
11001;BME280;5553;48.506;8.870;2022-07-26T00:36:57;96458.06;;;19.50;74.97
11001;BME280;5553;48.506;8.870;2022-07-26T00:39:25;96455.88;;;19.47;75.19
11001;BME280;5553;48.506;8.870;2022-07-26T00:41:53;96460.34;;;19.41;76.49
11001;BME280;5553;48.506;8.870;2022-07-26T00:44:35;96456.69;;;19.47;76.56
11001;BME280;5553;48.506;8.870;2022-07-26T00:47:03;96460.66;;;19.45;76.75
11001;BME280;5553;48.506;8.870;2022-07-26T00:49:32;96460.34;;;19.41;76.92
11001;BME280;5553;48.506;8.870;2022-07-26T00:52:01;96453.22;;;19.47;76.48
11001;BME280;5553;48.506;8.870;2022-07-26T00:54:29;96456.13;;;19.45;77.04
11001;BME280;5553;48.506;8.870;2022-07-26T00:56:57;96446.81;;;19.48;77.08
11001;BME280;5553;48.506;8.870;2022-07-26T00:59:28;96449.25;;;19.49;77.13
11001;BME280;5553;48.506;8.870;2022-07-26T01:01:57;96452.41;;;19.46;77.52
11001;BME280;5553;48.506;8.870;2022-07-26T01:04:25;96449.97;;;19.45;78.17
11001;BME280;5553;48.506;8.870;2022-07-26T01:06:54;96450.53;;;19.47;78.30
11001;BME280;5553;48.506;8.870;2022-07-26T01:09:23;96456.97;;;19.46;78.71
11001;BME280;5553;48.506;8.870;2022-07-26T01:11:52;96461.72;;;19.44;79.38
11001;BME280;5553;48.506;8.870;2022-07-26T01:14:21;96468.69;;;19.45;80.13
11001;BME280;5553;48.506;8.870;2022-07-26T01:16:52;96468.69;;;19.45;80.04
11001;BME280;5553;48.506;8.870;2022-07-26T01:19:21;96460.25;;;19.53;78.78
11001;BME280;5553;48.506;8.870;2022-07-26T01:21:52;96454.63;;;19.54;78.68
11001;BME280;5553;48.506;8.870;2022-07-26T01:24:20;96454.28;;;19.46;79.37
11001;BME280;5553;48.506;8.870;2022-07-26T01:26:48;96455.28;;;19.39;79.96
11001;BME280;5553;48.506;8.870;2022-07-26T01:29:17;96453.09;;;19.36;80.07
11001;BME280;5553;48.506;8.870;2022-07-26T01:31:45;96451.47;;;19.35;80.34
11001;BME280;5553;48.506;8.870;2022-07-26T01:34:13;96454.66;;;19.32;80.85
11001;BME280;5553;48.506;8.870;2022-07-26T01:36:42;96463.09;;;19.24;81.50
11001;BME280;5553;48.506;8.870;2022-07-26T01:39:13;96457.69;;;19.19;82.23
11001;BME280;5553;48.506;8.870;2022-07-26T01:41:41;96472.91;;;19.18;82.31
11001;BME280;5553;48.506;8.870;2022-07-26T01:44:09;96470.06;;;19.25;81.87
11001;BME280;5553;48.506;8.870;2022-07-26T01:46:37;96455.13;;;19.29;81.26
11001;BME280;5553;48.506;8.870;2022-07-26T01:49:06;96455.69;;;19.31;80.79
11001;BME280;5553;48.506;8.870;2022-07-26T01:51:34;96457.31;;;19.32;80.72
11001;BME280;5553;48.506;8.870;2022-07-26T01:54:03;96451.66;;;19.29;80.83
11001;BME280;5553;48.506;8.870;2022-07-26T01:56:34;96450.34;;;19.31;80.63
11001;BME280;5553;48.506;8.870;2022-07-26T01:59:02;96459.44;;;19.30;81.08
11001;BME280;5553;48.506;8.870;2022-07-26T02:01:31;96446.50;;;19.22;82.17
11001;BME280;5553;48.506;8.870;2022-07-26T02:03:59;96452.88;;;19.21;82.73
11001;BME280;5553;48.506;8.870;2022-07-26T02:06:27;96452.88;;;19.21;82.82
11001;BME280;5553;48.506;8.870;2022-07-26T02:08:55;96448.41;;;19.27;82.47
11001;BME280;5553;48.506;8.870;2022-07-26T02:11:24;96449.47;;;19.26;82.96
11001;BME280;5553;48.506;8.870;2022-07-26T02:13:55;96444.84;;;19.21;83.87
11001;BME280;5553;48.506;8.870;2022-07-26T02:16:23;96454.50;;;19.22;83.63
11001;BME280;5553;48.506;8.870;2022-07-26T02:18:52;96446.00;;;19.25;82.70
11001;BME280;5553;48.506;8.870;2022-07-26T02:21:20;96451.03;;;19.22;82.70
11001;BME280;5553;48.506;8.870;2022-07-26T02:23:48;96461.41;;;19.18;82.58
11001;BME280;5553;48.506;8.870;2022-07-26T02:26:17;96450.41;;;19.14;82.50
11001;BME280;5553;48.506;8.870;2022-07-26T02:28:45;96446.03;;;19.08;82.87
11001;BME280;5553;48.506;8.870;2022-07-26T02:31:16;96458.78;;;19.01;83.59
11001;BME280;5553;48.506;8.870;2022-07-26T02:33:44;96453.66;;;19.00;83.89
11001;BME280;5553;48.506;8.870;2022-07-26T02:36:12;96463.06;;;19.02;83.81
11001;BME280;5553;48.506;8.870;2022-07-26T02:38:40;96462.25;;;19.02;84.15
11001;BME280;5553;48.506;8.870;2022-07-26T02:41:09;96454.63;;;18.93;85.33
11001;BME280;5553;48.506;8.870;2022-07-26T02:43:37;96455.63;;;18.87;86.24
11001;BME280;5553;48.506;8.870;2022-07-26T02:46:05;96457.81;;;18.90;85.98
11001;BME280;5553;48.506;8.870;2022-07-26T02:48:37;96449.78;;;18.90;85.69
11001;BME280;5553;48.506;8.870;2022-07-26T02:51:06;96449.78;;;18.90;85.63
11001;BME280;5553;48.506;8.870;2022-07-26T02:53:34;96443.63;;;18.90;85.87
11001;BME280;5553;48.506;8.870;2022-07-26T02:56:03;96445.28;;;18.91;86.19
11001;BME280;5553;48.506;8.870;2022-07-26T02:58:31;96448.66;;;18.86;86.39
11001;BME280;5553;48.506;8.870;2022-07-26T03:00:59;96444.63;;;18.84;86.79
11001;BME280;5553;48.506;8.870;2022-07-26T03:03:28;96443.25;;;18.81;86.83
11001;BME280;5553;48.506;8.870;2022-07-26T03:05:58;96443.47;;;18.80;87.05
11001;BME280;5553;48.506;8.870;2022-07-26T03:08:27;96447.69;;;18.76;87.63
11001;BME280;5553;48.506;8.870;2022-07-26T03:10:55;96439.94;;;18.74;87.96
11001;BME280;5553;48.506;8.870;2022-07-26T03:13:24;96438.78;;;18.70;88.55
11001;BME280;5553;48.506;8.870;2022-07-26T03:15:52;96437.09;;;18.64;89.60
11001;BME280;5553;48.506;8.870;2022-07-26T03:18:21;96442.16;;;18.65;89.35
11001;BME280;5553;48.506;8.870;2022-07-26T03:20:49;96450.13;;;18.60;90.10
11001;BME280;5553;48.506;8.870;2022-07-26T03:23:20;96450.44;;;18.64;89.54
11001;BME280;5553;48.506;8.870;2022-07-26T03:25:48;96453.34;;;18.62;89.89
11001;BME280;5553;48.506;8.870;2022-07-26T03:28:16;96446.97;;;18.63;89.22
11001;BME280;5553;48.506;8.870;2022-07-26T03:30:45;96447.28;;;18.67;88.43
11001;BME280;5553;48.506;8.870;2022-07-26T03:33:13;96447.38;;;18.72;87.46
11001;BME280;5553;48.506;8.870;2022-07-26T03:35:41;96450.06;;;18.72;87.25
11001;BME280;5553;48.506;8.870;2022-07-26T03:38:10;96455.16;;;18.74;87.23
11001;BME280;5553;48.506;8.870;2022-07-26T03:40:40;96449.69;;;18.68;87.60
11001;BME280;5553;48.506;8.870;2022-07-26T03:43:09;96449.00;;;18.73;87.63
11001;BME280;5553;48.506;8.870;2022-07-26T03:45:37;96456.53;;;18.76;87.43
11001;BME280;5553;48.506;8.870;2022-07-26T03:48:05;96453.84;;;18.76;87.43
11001;BME280;5553;48.506;8.870;2022-07-26T04:00:11;96459.69;;;18.73;88.60
11001;BME280;5553;48.506;8.870;2022-07-26T04:02:39;96459.69;;;18.73;88.91
11001;BME280;5553;48.506;8.870;2022-07-26T04:05:08;96458.88;;;18.73;89.20
11001;BME280;5553;48.506;8.870;2022-07-26T04:07:41;96458.19;;;18.65;89.61
11001;BME280;5553;48.506;8.870;2022-07-26T04:10:10;96465.09;;;18.61;90.52
11001;BME280;5553;48.506;8.870;2022-07-26T04:12:40;96460.97;;;18.54;91.38
11001;BME280;5553;48.506;8.870;2022-07-26T04:15:11;96462.00;;;18.53;91.75
11001;BME280;5553;48.506;8.870;2022-07-26T04:17:41;96464.66;;;18.53;91.63
11001;BME280;5553;48.506;8.870;2022-07-26T04:20:12;96461.03;;;18.42;92.27
11001;BME280;5553;48.506;8.870;2022-07-26T04:22:41;96468.06;;;18.31;93.48
11001;BME280;5553;48.506;8.870;2022-07-26T04:25:09;96471.53;;;18.32;93.69
11001;BME280;5553;48.506;8.870;2022-07-26T04:27:38;96468.53;;;18.28;94.35
11001;BME280;5553;48.506;8.870;2022-07-26T04:30:08;96466.94;;;18.27;94.75
11001;BME280;5553;48.506;8.870;2022-07-26T04:32:39;96467.41;;;18.24;95.42
11001;BME280;5553;48.506;8.870;2022-07-26T04:35:08;96467.34;;;18.19;95.83
11001;BME280;5553;48.506;8.870;2022-07-26T04:37:39;96466.09;;;18.10;96.53
11001;BME280;5553;48.506;8.870;2022-07-26T04:40:09;96466.47;;;18.02;97.59
11001;BME280;5553;48.506;8.870;2022-07-26T04:42:38;96471.72;;;17.96;98.63
11001;BME280;5553;48.506;8.870;2022-07-26T04:45:08;96472.31;;;17.98;98.97
11001;BME280;5553;48.506;8.870;2022-07-26T04:47:40;96468.47;;;17.94;99.08
11001;BME280;5553;48.506;8.870;2022-07-26T04:50:09;96467.94;;;17.81;100.00
11001;BME280;5553;48.506;8.870;2022-07-26T04:52:38;96473.75;;;17.77;100.00
11001;BME280;5553;48.506;8.870;2022-07-26T04:55:08;96476.56;;;17.71;100.00
11001;BME280;5553;48.506;8.870;2022-07-26T04:57:37;96474.22;;;17.74;100.00
11001;BME280;5553;48.506;8.870;2022-07-26T05:00:08;96479.78;;;17.73;100.00
11001;BME280;5553;48.506;8.870;2022-07-26T05:02:40;96469.81;;;17.80;100.00
11001;BME280;5553;48.506;8.870;2022-07-26T05:05:08;96477.22;;;17.90;100.00
11001;BME280;5553;48.506;8.870;2022-07-26T05:07:40;96491.94;;;17.92;100.00
11001;BME280;5553;48.506;8.870;2022-07-26T05:10:09;96488.41;;;18.04;100.00
11001;BME280;5553;48.506;8.870;2022-07-26T05:12:38;96486.50;;;18.16;100.00
11001;BME280;5553;48.506;8.870;2022-07-26T05:15:08;96487.63;;;18.20;100.00
11001;BME280;5553;48.506;8.870;2022-07-26T05:17:40;96490.50;;;18.30;99.45
11001;BME280;5553;48.506;8.870;2022-07-26T05:20:11;96488.47;;;18.37;99.11
11001;BME280;5553;48.506;8.870;2022-07-26T05:22:41;96495.28;;;18.45;98.14
11001;BME280;5553;48.506;8.870;2022-07-26T05:25:09;96493.19;;;18.47;97.72
11001;BME280;5553;48.506;8.870;2022-07-26T05:27:37;96494.06;;;18.53;96.80
11001;BME280;5553;48.506;8.870;2022-07-26T05:30:08;96494.97;;;18.58;97.16
11001;BME280;5553;48.506;8.870;2022-07-26T05:32:36;96492.06;;;18.60;96.24
11001;BME280;5553;48.506;8.870;2022-07-26T05:35:08;96484.59;;;18.62;95.61
11001;BME280;5553;48.506;8.870;2022-07-26T05:37:36;96489.94;;;18.62;94.51
11001;BME280;5553;48.506;8.870;2022-07-26T05:40:06;96490.25;;;18.65;94.12
11001;BME280;5553;48.506;8.870;2022-07-26T05:42:34;96491.25;;;18.76;94.04
11001;BME280;5553;48.506;8.870;2022-07-26T05:45:03;96488.53;;;18.88;93.09
11001;BME280;5553;48.506;8.870;2022-07-26T05:47:32;96489.38;;;18.93;92.44
11001;BME280;5553;48.506;8.870;2022-07-26T05:50:00;96487.56;;;18.77;91.66
11001;BME280;5553;48.506;8.870;2022-07-26T05:52:31;96484.31;;;18.75;91.41
11001;BME280;5553;48.506;8.870;2022-07-26T05:54:59;96487.91;;;18.69;91.50
11001;BME280;5553;48.506;8.870;2022-07-26T05:57:28;96493.25;;;18.69;90.17
11001;BME280;5553;48.506;8.870;2022-07-26T05:59:56;96497.03;;;18.85;88.91
11001;BME280;5553;48.506;8.870;2022-07-26T06:02:24;96497.34;;;18.72;88.37
11001;BME280;5553;48.506;8.870;2022-07-26T06:04:52;96501.28;;;18.69;88.24
11001;BME280;5553;48.506;8.870;2022-07-26T06:07:21;96490.03;;;18.67;87.47
11001;BME280;5553;48.506;8.870;2022-07-26T06:09:52;96495.47;;;18.89;86.22
11001;BME280;5553;48.506;8.870;2022-07-26T06:12:20;96500.44;;;19.36;84.07
11001;BME280;5553;48.506;8.870;2022-07-26T06:14:48;96494.31;;;19.40;83.19
11001;BME280;5553;48.506;8.870;2022-07-26T06:30:15;96509.16;;;19.92;75.28
11001;BME280;5553;48.506;8.870;2022-07-26T06:32:44;96508.09;;;20.15;69.72
11001;BME280;5553;48.506;8.870;2022-07-26T06:35:13;96509.44;;;20.45;67.09
11001;BME280;5553;48.506;8.870;2022-07-26T06:37:42;96507.50;;;20.40;67.21
11001;BME280;5553;48.506;8.870;2022-07-26T06:40:11;96507.94;;;20.54;67.02
11001;BME280;5553;48.506;8.870;2022-07-26T06:42:39;96509.97;;;20.69;65.63
11001;BME280;5553;48.506;8.870;2022-07-26T06:45:08;96511.22;;;20.61;65.03
11001;BME280;5553;48.506;8.870;2022-07-26T06:47:39;96510.47;;;20.39;64.88
11001;BME280;5553;48.506;8.870;2022-07-26T06:50:09;96512.81;;;20.94;63.58
11001;BME280;5553;48.506;8.870;2022-07-26T06:52:49;96513.38;;;21.34;62.29
11001;BME280;5553;48.506;8.870;2022-07-26T06:55:17;96510.56;;;21.56;61.26
11001;BME280;5553;48.506;8.870;2022-07-26T06:57:46;96509.19;;;21.53;60.50
11001;BME280;5553;48.506;8.870;2022-07-26T07:00:16;96508.38;;;21.47;59.88
11001;BME280;5553;48.506;8.870;2022-07-26T07:02:47;96509.28;;;21.68;59.08
11001;BME280;5553;48.506;8.870;2022-07-26T07:05:15;96499.66;;;21.83;58.28
11001;BME280;5553;48.506;8.870;2022-07-26T07:07:44;96505.13;;;22.13;58.12
11001;BME280;5553;48.506;8.870;2022-07-26T07:10:12;96501.19;;;22.36;57.72
11001;BME280;5553;48.506;8.870;2022-07-26T07:12:40;96502.25;;;22.56;57.79
11001;BME280;5553;48.506;8.870;2022-07-26T07:15:24;96506.31;;;22.79;57.35
11001;BME280;5553;48.506;8.870;2022-07-26T07:17:55;96500.13;;;22.93;55.54
11001;BME280;5553;48.506;8.870;2022-07-26T07:20:23;96501.75;;;23.15;55.79
11001;BME280;5553;48.506;8.870;2022-07-26T07:22:52;96495.50;;;23.35;54.69
11001;BME280;5553;48.506;8.870;2022-07-26T07:25:38;96491.78;;;23.15;54.21
11001;BME280;5553;48.506;8.870;2022-07-26T07:28:07;96500.59;;;23.47;54.38
11001;BME280;5553;48.506;8.870;2022-07-26T07:30:35;96491.19;;;23.34;53.31
11001;BME280;5553;48.506;8.870;2022-07-26T07:33:06;96502.41;;;24.26;54.25
11001;BME280;5553;48.506;8.870;2022-07-26T07:35:37;96486.09;;;24.02;52.77
11001;BME280;5553;48.506;8.870;2022-07-26T07:38:05;96484.16;;;24.18;51.71
11001;BME280;5553;48.506;8.870;2022-07-26T07:40:34;96471.78;;;24.12;50.46
11001;BME280;5553;48.506;8.870;2022-07-26T07:43:03;96495.25;;;24.90;50.13
11001;BME280;5553;48.506;8.870;2022-07-26T07:45:31;96472.63;;;24.02;49.69
11001;BME280;5553;48.506;8.870;2022-07-26T07:47:59;96474.59;;;24.36;49.25
11001;BME280;5553;48.506;8.870;2022-07-26T07:50:31;96469.88;;;24.91;48.57
11001;BME280;5553;48.506;8.870;2022-07-26T07:52:59;96486.84;;;26.36;48.90
11001;BME280;5553;48.506;8.870;2022-07-26T07:55:27;96468.16;;;25.00;48.38
11001;BME280;5553;48.506;8.870;2022-07-26T07:57:55;96478.56;;;25.41;48.46
11001;BME280;5553;48.506;8.870;2022-07-26T08:00:24;96476.09;;;25.69;48.27
11001;BME280;5553;48.506;8.870;2022-07-26T08:02:53;96469.38;;;25.18;47.21
11001;BME280;5553;48.506;8.870;2022-07-26T08:05:21;96470.53;;;25.84;46.92
11001;BME280;5553;48.506;8.870;2022-07-26T08:07:52;96473.41;;;26.31;46.99
11001;BME280;5553;48.506;8.870;2022-07-26T08:10:21;96456.16;;;25.89;45.12
11001;BME280;5553;48.506;8.870;2022-07-26T08:12:49;96458.22;;;24.67;48.31
11001;BME280;5553;48.506;8.870;2022-07-26T08:15:17;96473.56;;;25.53;47.23
11001;BME280;5553;48.506;8.870;2022-07-26T08:17:47;96458.63;;;25.08;46.58
11001;BME280;5553;48.506;8.870;2022-07-26T08:20:15;96460.72;;;24.13;48.38
11001;BME280;5553;48.506;8.870;2022-07-26T08:22:44;96468.06;;;23.28;49.34
11001;BME280;5553;48.506;8.870;2022-07-26T08:25:15;96474.41;;;25.73;45.16
11001;BME280;5553;48.506;8.870;2022-07-26T08:27:43;96454.25;;;24.54;45.68
11001;BME280;5553;48.506;8.870;2022-07-26T08:30:12;96460.50;;;23.35;47.40
11001;BME280;5553;48.506;8.870;2022-07-26T08:32:40;96464.25;;;25.17;44.66
11001;BME280;5553;48.506;8.870;2022-07-26T08:35:09;96449.44;;;24.06;45.71
11001;BME280;5553;48.506;8.870;2022-07-26T08:37:38;96459.94;;;25.16;44.51
11001;BME280;5553;48.506;8.870;2022-07-26T08:40:07;96473.53;;;25.77;44.80
11001;BME280;5553;48.506;8.870;2022-07-26T08:42:38;96455.25;;;24.29;45.44
11001;BME280;5553;48.506;8.870;2022-07-26T08:45:07;96441.03;;;25.16;42.58
11001;BME280;5553;48.506;8.870;2022-07-26T08:47:36;96439.59;;;24.31;44.88
11001;BME280;5553;48.506;8.870;2022-07-26T08:50:05;96443.03;;;25.05;43.18
11001;BME280;5553;48.506;8.870;2022-07-26T08:52:37;96474.53;;;25.63;43.64
11001;BME280;5553;48.506;8.870;2022-07-26T08:55:08;96471.00;;;26.67;41.63
11001;BME280;5553;48.506;8.870;2022-07-26T08:57:40;96469.81;;;26.35;41.75
11001;BME280;5553;48.506;8.870;2022-07-26T09:00:19;96469.66;;;25.65;43.23
11001;BME280;5553;48.506;8.870;2022-07-26T09:02:49;96458.84;;;24.88;44.44
11001;BME280;5553;48.506;8.870;2022-07-26T09:05:19;96467.47;;;25.91;43.16
11001;BME280;5553;48.506;8.870;2022-07-26T09:07:47;96467.16;;;24.62;45.64
11001;BME280;5553;48.506;8.870;2022-07-26T09:10:16;96474.56;;;26.06;43.42
11001;BME280;5553;48.506;8.870;2022-07-26T09:12:52;96480.50;;;26.27;43.19
11001;BME280;5553;48.506;8.870;2022-07-26T09:15:22;96468.22;;;25.96;42.60
11001;BME280;5553;48.506;8.870;2022-07-26T09:17:53;96482.06;;;26.84;41.74
11001;BME280;5553;48.506;8.870;2022-07-26T09:20:24;96474.19;;;27.02;40.82
11001;BME280;5553;48.506;8.870;2022-07-26T09:22:59;96485.19;;;27.52;39.94
11001;BME280;5553;48.506;8.870;2022-07-26T09:25:29;96464.13;;;26.18;41.64
11001;BME280;5553;48.506;8.870;2022-07-26T09:28:01;96458.78;;;26.32;40.98
11001;BME280;5553;48.506;8.870;2022-07-26T09:30:30;96462.13;;;25.09;43.07
11001;BME280;5553;48.506;8.870;2022-07-26T09:33:01;96462.22;;;23.85;45.54
11001;BME280;5553;48.506;8.870;2022-07-26T09:35:31;96472.63;;;23.42;46.53
11001;BME280;5553;48.506;8.870;2022-07-26T09:38:11;96493.72;;;25.13;44.06
11001;BME280;5553;48.506;8.870;2022-07-26T09:40:40;96505.34;;;26.99;42.02
11001;BME280;5553;48.506;8.870;2022-07-26T09:43:11;96465.13;;;25.36;43.06
11001;BME280;5553;48.506;8.870;2022-07-26T09:45:40;96462.16;;;23.96;44.06
11001;BME280;5553;48.506;8.870;2022-07-26T09:48:10;96479.09;;;24.85;43.43
11001;BME280;5553;48.506;8.870;2022-07-26T09:50:46;96484.72;;;26.14;41.13
11001;BME280;5553;48.506;8.870;2022-07-26T09:53:14;96500.41;;;27.20;40.29
11001;BME280;5553;48.506;8.870;2022-07-26T09:55:54;96474.75;;;26.85;38.63
11001;BME280;5553;48.506;8.870;2022-07-26T09:58:25;96486.81;;;27.39;38.15
11001;BME280;5553;48.506;8.870;2022-07-26T10:00:54;96489.41;;;27.99;37.28
11001;BME280;5553;48.506;8.870;2022-07-26T10:03:23;96472.38;;;26.97;38.49
11001;BME280;5553;48.506;8.870;2022-07-26T10:05:51;96477.94;;;26.87;38.72
11001;BME280;5553;48.506;8.870;2022-07-26T10:08:20;96483.41;;;27.01;38.59
11001;BME280;5553;48.506;8.870;2022-07-26T10:10:49;96479.47;;;26.93;38.31
11001;BME280;5553;48.506;8.870;2022-07-26T10:13:21;96458.34;;;26.43;38.33
11001;BME280;5553;48.506;8.870;2022-07-26T10:15:52;96461.91;;;25.34;40.41
11001;BME280;5553;48.506;8.870;2022-07-26T10:18:41;96507.53;;;28.26;36.84
11001;BME280;5553;48.506;8.870;2022-07-26T10:21:19;96490.81;;;27.69;37.77
11001;BME280;5553;48.506;8.870;2022-07-26T10:23:49;96448.47;;;25.53;39.67
11001;BME280;5553;48.506;8.870;2022-07-26T10:26:39;96500.47;;;28.03;37.31
11001;BME280;5553;48.506;8.870;2022-07-26T10:29:26;96470.75;;;27.70;36.86
11001;BME280;5553;48.506;8.870;2022-07-26T10:32:16;96479.03;;;28.65;36.21
11001;BME280;5553;48.506;8.870;2022-07-26T10:34:45;96481.88;;;27.96;37.50
11001;BME280;5553;48.506;8.870;2022-07-26T10:37:22;96449.84;;;25.50;39.75
11001;BME280;5553;48.506;8.870;2022-07-26T10:40:17;96454.41;;;24.68;42.26
11001;BME280;5553;48.506;8.870;2022-07-26T10:42:46;96466.66;;;24.89;42.21
11001;BME280;5553;48.506;8.870;2022-07-26T10:45:17;96492.44;;;25.00;42.29
11001;BME280;5553;48.506;8.870;2022-07-26T10:48:12;96483.22;;;25.60;41.38
11001;BME280;5553;48.506;8.870;2022-07-26T10:50:42;96482.28;;;25.21;41.60
11001;BME280;5553;48.506;8.870;2022-07-26T10:53:16;96460.22;;;24.06;42.71
11001;BME280;5553;48.506;8.870;2022-07-26T10:55:49;96505.66;;;27.30;38.80
11001;BME280;5553;48.506;8.870;2022-07-26T10:58:19;96494.81;;;25.36;41.45
11001;BME280;5553;48.506;8.870;2022-07-26T11:00:55;96494.09;;;25.55;41.54
11001;BME280;5553;48.506;8.870;2022-07-26T11:03:34;96473.84;;;26.89;37.56
11001;BME280;5553;48.506;8.870;2022-07-26T11:06:11;96470.44;;;26.84;37.33
11001;BME280;5553;48.506;8.870;2022-07-26T11:08:40;96481.69;;;27.37;36.94
11001;BME280;5553;48.506;8.870;2022-07-26T11:11:09;96471.22;;;26.70;38.02
11001;BME280;5553;48.506;8.870;2022-07-26T11:13:37;96488.41;;;27.54;37.48
11001;BME280;5553;48.506;8.870;2022-07-26T11:16:07;96481.78;;;27.19;37.94
11001;BME280;5553;48.506;8.870;2022-07-26T11:18:38;96484.97;;;27.21;38.16
11001;BME280;5553;48.506;8.870;2022-07-26T11:21:09;96486.22;;;27.97;37.10
11001;BME280;5553;48.506;8.870;2022-07-26T11:23:38;96517.16;;;28.83;37.60
11001;BME280;5553;48.506;8.870;2022-07-26T11:26:14;96470.56;;;27.94;35.72
11001;BME280;5553;48.506;8.870;2022-07-26T11:28:54;96487.66;;;28.31;36.76
11001;BME280;5553;48.506;8.870;2022-07-26T11:31:25;96445.13;;;26.23;38.04
11001;BME280;5553;48.506;8.870;2022-07-26T11:33:56;96445.84;;;25.24;40.40
11001;BME280;5553;48.506;8.870;2022-07-26T11:36:33;96487.56;;;27.12;38.54
11001;BME280;5553;48.506;8.870;2022-07-26T11:39:03;96445.81;;;25.72;39.03
11001;BME280;5553;48.506;8.870;2022-07-26T11:41:32;96438.53;;;24.95;38.97
11001;BME280;5553;48.506;8.870;2022-07-26T11:44:01;96459.16;;;26.06;37.56
11001;BME280;5553;48.506;8.870;2022-07-26T11:46:35;96488.00;;;28.16;36.27
11001;BME280;5553;48.506;8.870;2022-07-26T11:49:12;96456.09;;;25.70;39.13
11001;BME280;5553;48.506;8.870;2022-07-26T11:51:48;96446.47;;;24.52;41.25
11001;BME280;5553;48.506;8.870;2022-07-26T11:54:16;96474.03;;;25.08;41.42
11001;BME280;5553;48.506;8.870;2022-07-26T11:56:52;96487.94;;;27.05;38.65
11001;BME280;5553;48.506;8.870;2022-07-26T11:59:21;96488.41;;;28.09;36.73
11001;BME280;5553;48.506;8.870;2022-07-26T12:01:51;96467.72;;;27.99;34.67
11001;BME280;5553;48.506;8.870;2022-07-26T12:04:24;96467.94;;;28.03;35.54
11001;BME280;5553;48.506;8.870;2022-07-26T12:06:53;96470.47;;;28.35;34.58
11001;BME280;5553;48.506;8.870;2022-07-26T12:09:33;96494.56;;;28.96;36.35
11001;BME280;5553;48.506;8.870;2022-07-26T12:12:03;96475.38;;;27.70;37.03
11001;BME280;5553;48.506;8.870;2022-07-26T12:14:33;96485.31;;;27.88;37.03
11001;BME280;5553;48.506;8.870;2022-07-26T12:17:10;96519.53;;;30.00;35.52
11001;BME280;5553;48.506;8.870;2022-07-26T12:19:42;96492.34;;;30.17;34.51
11001;BME280;5553;48.506;8.870;2022-07-26T12:22:11;96475.94;;;29.74;34.13
11001;BME280;5553;48.506;8.870;2022-07-26T12:24:54;96449.91;;;27.29;37.14
11001;BME280;5553;48.506;8.870;2022-07-26T12:27:24;96422.09;;;25.88;38.74
11001;BME280;5553;48.506;8.870;2022-07-26T12:29:55;96464.84;;;27.54;36.92
11001;BME280;5553;48.506;8.870;2022-07-26T12:32:41;96460.53;;;28.45;35.23
11001;BME280;5553;48.506;8.870;2022-07-26T12:35:13;96468.19;;;28.65;35.68
11001;BME280;5553;48.506;8.870;2022-07-26T12:37:50;96436.56;;;27.47;36.56
11001;BME280;5553;48.506;8.870;2022-07-26T12:40:19;96447.53;;;28.05;35.94
11001;BME280;5553;48.506;8.870;2022-07-26T12:42:54;96476.94;;;29.87;33.95
11001;BME280;5553;48.506;8.870;2022-07-26T12:45:24;96459.44;;;29.22;34.11
11001;BME280;5553;48.506;8.870;2022-07-26T12:47:55;96460.22;;;28.46;37.06
11001;BME280;5553;48.506;8.870;2022-07-26T12:50:27;96402.81;;;25.75;38.47
11001;BME280;5553;48.506;8.870;2022-07-26T12:52:59;96451.69;;;27.89;36.02
11001;BME280;5553;48.506;8.870;2022-07-26T12:55:27;96427.53;;;28.15;34.16
11001;BME280;5553;48.506;8.870;2022-07-26T12:57:56;96426.34;;;28.44;34.23
11001;BME280;5553;48.506;8.870;2022-07-26T13:00:25;96430.44;;;28.55;34.58
11001;BME280;5553;48.506;8.870;2022-07-26T13:02:53;96450.56;;;29.79;33.03
11001;BME280;5553;48.506;8.870;2022-07-26T13:05:22;96438.91;;;29.47;33.52
11001;BME280;5553;48.506;8.870;2022-07-26T13:07:53;96499.72;;;31.38;33.59
11001;BME280;5553;48.506;8.870;2022-07-26T13:10:22;96484.47;;;31.29;33.86
11001;BME280;5553;48.506;8.870;2022-07-26T13:12:50;96435.72;;;30.02;33.26
11001;BME280;5553;48.506;8.870;2022-07-26T13:15:18;96433.94;;;29.89;33.51
11001;BME280;5553;48.506;8.870;2022-07-26T13:17:47;96408.56;;;28.38;35.11
11001;BME280;5553;48.506;8.870;2022-07-26T13:20:16;96440.91;;;28.93;35.29
11001;BME280;5553;48.506;8.870;2022-07-26T13:22:44;96430.84;;;29.64;33.42
11001;BME280;5553;48.506;8.870;2022-07-26T13:25:15;96424.09;;;28.91;34.92
11001;BME280;5553;48.506;8.870;2022-07-26T13:27:43;96434.97;;;29.13;35.22
11001;BME280;5553;48.506;8.870;2022-07-26T13:30:12;96448.69;;;30.66;33.60
11001;BME280;5553;48.506;8.870;2022-07-26T13:32:40;96425.38;;;30.30;33.53
11001;BME280;5553;48.506;8.870;2022-07-26T13:35:09;96382.56;;;27.78;35.79
11001;BME280;5553;48.506;8.870;2022-07-26T13:37:37;96385.09;;;27.05;36.53
11001;BME280;5553;48.506;8.870;2022-07-26T13:40:07;96392.25;;;27.93;35.01
11001;BME280;5553;48.506;8.870;2022-07-26T13:42:38;96388.88;;;27.87;35.84
11001;BME280;5553;48.506;8.870;2022-07-26T13:45:07;96361.56;;;26.27;37.13
11001;BME280;5553;48.506;8.870;2022-07-26T13:47:36;96381.09;;;26.37;38.39
11001;BME280;5553;48.506;8.870;2022-07-26T13:50:05;96374.06;;;26.22;38.17